N2324K KCVG-KCMH
Flight info
| Callsign | N2324K |
|---|---|
| Flight time | 0h 38m |
| Altitude | 5000 |
| Route | JAKTZ JAKTZ2 |
| Aircraft | BE58/L-SDFGRY/C |
Departure
| Time | 2026-05-08 23:45 |
|---|---|
| Airport | Cincinnati Northern Kentucky International Airport (KCVG) |
Arrival
| Time | 2026-05-09 00:23 |
|---|---|
| Airport | John Glenn Columbus International Airport (KCMH) |
| Time | Latitude | Longitude | Altitude | Speed | Heading |
|---|---|---|---|---|---|
| 2026-05-08 23:13 | 39.04376 | -84.65594 | 868 ft | 0 kts | 90° |
| 2026-05-08 23:34 | 39.04376 | -84.65593 | 868 ft | 1 kts | 91° |
| 2026-05-08 23:35 | 39.04379 | -84.65560 | 867 ft | 4 kts | 30° |
| 2026-05-08 23:35 | 39.04403 | -84.65573 | 867 ft | 5 kts | 326° |
| 2026-05-08 23:35 | 39.04424 | -84.65586 | 866 ft | 2 kts | 346° |
| 2026-05-08 23:35 | 39.04458 | -84.65582 | 864 ft | 8 kts | 44° |
| 2026-05-08 23:36 | 39.04462 | -84.65516 | 865 ft | 8 kts | 92° |
| 2026-05-08 23:36 | 39.04463 | -84.65418 | 865 ft | 12 kts | 86° |
| 2026-05-08 23:36 | 39.04473 | -84.65318 | 867 ft | 10 kts | 59° |
| 2026-05-08 23:36 | 39.04475 | -84.65314 | 867 ft | 0 kts | 55° |
| 2026-05-08 23:37 | 39.04505 | -84.65298 | 866 ft | 10 kts | 3° |
| 2026-05-08 23:37 | 39.04593 | -84.65298 | 858 ft | 13 kts | 359° |
| 2026-05-08 23:37 | 39.04682 | -84.65297 | 867 ft | 12 kts | 1° |
| 2026-05-08 23:37 | 39.04752 | -84.65298 | 868 ft | 8 kts | 4° |
| 2026-05-08 23:38 | 39.04783 | -84.65296 | 869 ft | 0 kts | 1° |
| 2026-05-08 23:38 | 39.04810 | -84.65291 | 869 ft | 6 kts | 55° |
| 2026-05-08 23:38 | 39.04808 | -84.65231 | 871 ft | 8 kts | 91° |
| 2026-05-08 23:38 | 39.04810 | -84.65149 | 872 ft | 10 kts | 85° |
| 2026-05-08 23:39 | 39.04815 | -84.65072 | 872 ft | 8 kts | 85° |
| 2026-05-08 23:39 | 39.04816 | -84.65035 | 872 ft | 0 kts | 89° |
| 2026-05-08 23:39 | 39.04821 | -84.65010 | 873 ft | 8 kts | 63° |
| 2026-05-08 23:39 | 39.04867 | -84.64987 | 873 ft | 8 kts | 354° |
| 2026-05-08 23:40 | 39.04933 | -84.64988 | 874 ft | 10 kts | 2° |
| 2026-05-08 23:40 | 39.05007 | -84.64987 | 873 ft | 10 kts | 0° |
| 2026-05-08 23:40 | 39.05077 | -84.64986 | 870 ft | 10 kts | 1° |
| 2026-05-08 23:40 | 39.05155 | -84.64988 | 867 ft | 14 kts | 358° |
| 2026-05-08 23:41 | 39.05249 | -84.64987 | 866 ft | 13 kts | 359° |
| 2026-05-08 23:41 | 39.05333 | -84.64991 | 866 ft | 11 kts | 356° |
| 2026-05-08 23:41 | 39.05394 | -84.64994 | 862 ft | 0 kts | 5° |
| 2026-05-08 23:41 | 39.05443 | -84.64987 | 858 ft | 13 kts | 2° |
| 2026-05-08 23:42 | 39.05535 | -84.64985 | 863 ft | 14 kts | 6° |
| 2026-05-08 23:42 | 39.05575 | -84.64933 | 863 ft | 0 kts | 79° |
| 2026-05-08 23:42 | 39.05577 | -84.64915 | 862 ft | 8 kts | 85° |
| 2026-05-08 23:42 | 39.05576 | -84.64801 | 863 ft | 13 kts | 91° |
| 2026-05-08 23:43 | 39.05572 | -84.64700 | 864 ft | 10 kts | 109° |
| 2026-05-08 23:43 | 39.05537 | -84.64668 | 864 ft | 0 kts | 173° |
| 2026-05-08 23:44 | 39.05299 | -84.64674 | 863 ft | 82 kts | 176° |
| 2026-05-08 23:44 | 39.04553 | -84.64648 | 1111 ft | 117 kts | 182° |
| 2026-05-08 23:45 | 39.03769 | -84.64577 | 1756 ft | 111 kts | 174° |
| 2026-05-08 23:45 | 39.03056 | -84.64169 | 2381 ft | 113 kts | 159° |
| 2026-05-08 23:45 | 39.02379 | -84.63687 | 2992 ft | 111 kts | 160° |
| 2026-05-08 23:45 | 39.01708 | -84.63188 | 3573 ft | 112 kts | 159° |
| 2026-05-08 23:46 | 39.01006 | -84.62668 | 4005 ft | 130 kts | 159° |
| 2026-05-08 23:46 | 39.00098 | -84.62040 | 4023 ft | 164 kts | 159° |
| 2026-05-08 23:46 | 38.99029 | -84.61333 | 4021 ft | 180 kts | 159° |
| 2026-05-08 23:46 | 38.97894 | -84.60564 | 4012 ft | 191 kts | 151° |
| 2026-05-08 23:47 | 38.97160 | -84.59107 | 4175 ft | 203 kts | 105° |
| 2026-05-08 23:47 | 38.97416 | -84.57349 | 4476 ft | 205 kts | 59° |
| 2026-05-08 23:47 | 38.98346 | -84.55993 | 4780 ft | 201 kts | 55° |
| 2026-05-08 23:47 | 38.98932 | -84.54373 | 4994 ft | 204 kts | 72° |
| 2026-05-08 23:48 | 38.99454 | -84.52622 | 5007 ft | 215 kts | 69° |
| 2026-05-08 23:48 | 39.00080 | -84.50827 | 4996 ft | 223 kts | 67° |
| 2026-05-08 23:48 | 39.00745 | -84.49013 | 4998 ft | 226 kts | 66° |
| 2026-05-08 23:48 | 39.01405 | -84.47174 | 4997 ft | 228 kts | 67° |
| 2026-05-08 23:49 | 39.02065 | -84.45311 | 4995 ft | 228 kts | 67° |
| 2026-05-08 23:49 | 39.02718 | -84.43474 | 4995 ft | 224 kts | 67° |
| 2026-05-08 23:49 | 39.03362 | -84.41668 | 4992 ft | 220 kts | 68° |
| 2026-05-08 23:49 | 39.03992 | -84.39894 | 4995 ft | 217 kts | 67° |
| 2026-05-08 23:50 | 39.04620 | -84.38127 | 4994 ft | 217 kts | 68° |
| 2026-05-08 23:50 | 39.05247 | -84.36363 | 4977 ft | 217 kts | 68° |
| 2026-05-08 23:50 | 39.05871 | -84.34603 | 4977 ft | 216 kts | 68° |
| 2026-05-08 23:50 | 39.06485 | -84.32864 | 4975 ft | 216 kts | 68° |
| 2026-05-08 23:51 | 39.07109 | -84.31105 | 4973 ft | 216 kts | 68° |
| 2026-05-08 23:51 | 39.07733 | -84.29343 | 4973 ft | 216 kts | 68° |
| 2026-05-08 23:51 | 39.08355 | -84.27585 | 4970 ft | 215 kts | 68° |
| 2026-05-08 23:51 | 39.08976 | -84.25827 | 4970 ft | 215 kts | 68° |
| 2026-05-08 23:52 | 39.09593 | -84.24083 | 4972 ft | 214 kts | 68° |
| 2026-05-08 23:52 | 39.10210 | -84.22335 | 4971 ft | 213 kts | 68° |
| 2026-05-08 23:52 | 39.10824 | -84.20597 | 4971 ft | 213 kts | 68° |
| 2026-05-08 23:52 | 39.11437 | -84.18857 | 4972 ft | 213 kts | 68° |
| 2026-05-08 23:53 | 39.12043 | -84.17142 | 4972 ft | 213 kts | 68° |
| 2026-05-08 23:53 | 39.12657 | -84.15399 | 4971 ft | 214 kts | 68° |
| 2026-05-08 23:53 | 39.13271 | -84.13652 | 4973 ft | 214 kts | 67° |
| 2026-05-08 23:53 | 39.13885 | -84.11907 | 4974 ft | 214 kts | 68° |
| 2026-05-08 23:54 | 39.14502 | -84.10155 | 4972 ft | 214 kts | 68° |
| 2026-05-08 23:54 | 39.15119 | -84.08400 | 4971 ft | 214 kts | 68° |
| 2026-05-08 23:54 | 39.15732 | -84.06656 | 4974 ft | 214 kts | 68° |
| 2026-05-08 23:55 | 39.16959 | -84.03159 | 4977 ft | 214 kts | 68° |
| 2026-05-08 23:55 | 39.17573 | -84.01406 | 4978 ft | 214 kts | 68° |
| 2026-05-08 23:55 | 39.18186 | -83.99659 | 4976 ft | 214 kts | 68° |
| 2026-05-08 23:55 | 39.18798 | -83.97911 | 4977 ft | 214 kts | 68° |
| 2026-05-08 23:56 | 39.19570 | -83.96276 | 4984 ft | 215 kts | 47° |
| 2026-05-08 23:56 | 39.20612 | -83.94891 | 4986 ft | 216 kts | 46° |
| 2026-05-08 23:56 | 39.21636 | -83.93507 | 4988 ft | 216 kts | 46° |
| 2026-05-08 23:56 | 39.22667 | -83.92093 | 4988 ft | 216 kts | 47° |
| 2026-05-08 23:57 | 39.23698 | -83.90684 | 4995 ft | 216 kts | 46° |
| 2026-05-08 23:57 | 39.24730 | -83.89277 | 4995 ft | 215 kts | 46° |
| 2026-05-08 23:57 | 39.25753 | -83.87878 | 4995 ft | 214 kts | 46° |
| 2026-05-08 23:57 | 39.26776 | -83.86480 | 4995 ft | 214 kts | 46° |
| 2026-05-08 23:58 | 39.27799 | -83.85080 | 4996 ft | 215 kts | 46° |
| 2026-05-08 23:58 | 39.28830 | -83.83670 | 4996 ft | 215 kts | 46° |
| 2026-05-08 23:58 | 39.29856 | -83.82265 | 4998 ft | 215 kts | 46° |
| 2026-05-08 23:58 | 39.30537 | -83.81333 | 4997 ft | 216 kts | 46° |
| 2026-05-08 23:59 | 39.31566 | -83.79923 | 4999 ft | 216 kts | 46° |
| 2026-05-08 23:59 | 39.32597 | -83.78510 | 4999 ft | 216 kts | 46° |
| 2026-05-08 23:59 | 39.33629 | -83.77095 | 4999 ft | 216 kts | 46° |
| 2026-05-08 23:59 | 39.34659 | -83.75682 | 5005 ft | 216 kts | 46° |
| 2026-05-09 00:00 | 39.35692 | -83.74264 | 5003 ft | 217 kts | 46° |
| 2026-05-09 00:00 | 39.36724 | -83.72848 | 5005 ft | 216 kts | 46° |
| 2026-05-09 00:00 | 39.37760 | -83.71425 | 5000 ft | 217 kts | 46° |
| 2026-05-09 00:00 | 39.38790 | -83.70009 | 5002 ft | 216 kts | 46° |
| 2026-05-09 00:01 | 39.39825 | -83.68587 | 5022 ft | 217 kts | 46° |
| 2026-05-09 00:01 | 39.40859 | -83.67164 | 5032 ft | 216 kts | 46° |
| 2026-05-09 00:01 | 39.41879 | -83.65761 | 5023 ft | 217 kts | 46° |
| 2026-05-09 00:01 | 39.42915 | -83.64333 | 5025 ft | 218 kts | 46° |
| 2026-05-09 00:02 | 39.43955 | -83.62902 | 5022 ft | 218 kts | 46° |
| 2026-05-09 00:02 | 39.44993 | -83.61470 | 5023 ft | 218 kts | 46° |
| 2026-05-09 00:02 | 39.46028 | -83.60043 | 5022 ft | 218 kts | 46° |
| 2026-05-09 00:02 | 39.47065 | -83.58613 | 5021 ft | 218 kts | 46° |
| 2026-05-09 00:03 | 39.48105 | -83.57178 | 5011 ft | 218 kts | 46° |
| 2026-05-09 00:03 | 39.49139 | -83.55750 | 5010 ft | 218 kts | 46° |
| 2026-05-09 00:03 | 39.50176 | -83.54318 | 5007 ft | 217 kts | 46° |
| 2026-05-09 00:03 | 39.51211 | -83.52888 | 4997 ft | 217 kts | 46° |
| 2026-05-09 00:04 | 39.52230 | -83.51479 | 4992 ft | 217 kts | 46° |
| 2026-05-09 00:04 | 39.53260 | -83.50054 | 4991 ft | 216 kts | 46° |
| 2026-05-09 00:04 | 39.54289 | -83.48629 | 4989 ft | 216 kts | 46° |
| 2026-05-09 00:04 | 39.55320 | -83.47202 | 4989 ft | 217 kts | 46° |
| 2026-05-09 00:05 | 39.56352 | -83.45772 | 4991 ft | 217 kts | 46° |
| 2026-05-09 00:05 | 39.57383 | -83.44343 | 4990 ft | 217 kts | 46° |
| 2026-05-09 00:05 | 39.58416 | -83.42911 | 4985 ft | 217 kts | 46° |
| 2026-05-09 00:05 | 39.59489 | -83.41547 | 4984 ft | 216 kts | 36° |
| 2026-05-09 00:06 | 39.60682 | -83.40365 | 4988 ft | 216 kts | 36° |
| 2026-05-09 00:06 | 39.61865 | -83.39169 | 5000 ft | 216 kts | 36° |
| 2026-05-09 00:06 | 39.63049 | -83.37964 | 5000 ft | 217 kts | 36° |
| 2026-05-09 00:06 | 39.64239 | -83.36755 | 5003 ft | 218 kts | 36° |
| 2026-05-09 00:07 | 39.65435 | -83.35542 | 5001 ft | 218 kts | 36° |
| 2026-05-09 00:07 | 39.66616 | -83.34345 | 5004 ft | 218 kts | 36° |
| 2026-05-09 00:07 | 39.67815 | -83.33127 | 5004 ft | 220 kts | 36° |
| 2026-05-09 00:07 | 39.69020 | -83.31903 | 5006 ft | 220 kts | 36° |
| 2026-05-09 00:08 | 39.70224 | -83.30680 | 5007 ft | 220 kts | 36° |
| 2026-05-09 00:08 | 39.71430 | -83.29454 | 5006 ft | 220 kts | 36° |
| 2026-05-09 00:08 | 39.72537 | -83.28092 | 5002 ft | 221 kts | 54° |
| 2026-05-09 00:08 | 39.73373 | -83.26426 | 5006 ft | 222 kts | 57° |
| 2026-05-09 00:09 | 39.74224 | -83.24738 | 5007 ft | 222 kts | 57° |
| 2026-05-09 00:09 | 39.75079 | -83.23070 | 5010 ft | 221 kts | 57° |
| 2026-05-09 00:09 | 39.75933 | -83.21400 | 5010 ft | 222 kts | 57° |
| 2026-05-09 00:09 | 39.76785 | -83.19731 | 5011 ft | 222 kts | 57° |
| 2026-05-09 00:10 | 39.77636 | -83.18059 | 5012 ft | 222 kts | 57° |
| 2026-05-09 00:10 | 39.78488 | -83.16388 | 5013 ft | 222 kts | 57° |
| 2026-05-09 00:10 | 39.79344 | -83.14715 | 5007 ft | 221 kts | 56° |
| 2026-05-09 00:10 | 39.80206 | -83.13064 | 5008 ft | 220 kts | 56° |
| 2026-05-09 00:11 | 39.81065 | -83.11417 | 5009 ft | 220 kts | 56° |
| 2026-05-09 00:11 | 39.81910 | -83.09789 | 5008 ft | 220 kts | 56° |
| 2026-05-09 00:11 | 39.82765 | -83.08138 | 5018 ft | 220 kts | 56° |
| 2026-05-09 00:11 | 39.83620 | -83.06489 | 5017 ft | 220 kts | 56° |
| 2026-05-09 00:12 | 39.84474 | -83.04833 | 5016 ft | 220 kts | 56° |
| 2026-05-09 00:12 | 39.85331 | -83.03172 | 5009 ft | 221 kts | 56° |
| 2026-05-09 00:12 | 39.86185 | -83.01516 | 5008 ft | 221 kts | 56° |
| 2026-05-09 00:12 | 39.87039 | -82.99861 | 5008 ft | 220 kts | 56° |
| 2026-05-09 00:13 | 39.87895 | -82.98201 | 5010 ft | 220 kts | 56° |
| 2026-05-09 00:13 | 39.88746 | -82.96549 | 5007 ft | 216 kts | 55° |
| 2026-05-09 00:13 | 39.89559 | -82.94974 | 4995 ft | 204 kts | 56° |
| 2026-05-09 00:13 | 39.90329 | -82.93458 | 4988 ft | 198 kts | 60° |
| 2026-05-09 00:14 | 39.90667 | -82.91777 | 4983 ft | 190 kts | 95° |
| 2026-05-09 00:14 | 39.90579 | -82.90074 | 4985 ft | 187 kts | 99° |
| 2026-05-09 00:14 | 39.90495 | -82.88384 | 4985 ft | 187 kts | 97° |
| 2026-05-09 00:14 | 39.90447 | -82.86712 | 4982 ft | 187 kts | 97° |
| 2026-05-09 00:15 | 39.90403 | -82.85027 | 4985 ft | 186 kts | 96° |
| 2026-05-09 00:15 | 39.90360 | -82.83343 | 4983 ft | 186 kts | 96° |
| 2026-05-09 00:15 | 39.90312 | -82.81656 | 4914 ft | 189 kts | 97° |
| 2026-05-09 00:15 | 39.90259 | -82.79905 | 4679 ft | 197 kts | 96° |
| 2026-05-09 00:16 | 39.90196 | -82.78098 | 4431 ft | 201 kts | 97° |
| 2026-05-09 00:16 | 39.90129 | -82.76270 | 4183 ft | 203 kts | 97° |
| 2026-05-09 00:16 | 39.90059 | -82.74438 | 3997 ft | 199 kts | 96° |
| 2026-05-09 00:16 | 39.89988 | -82.72690 | 3998 ft | 189 kts | 96° |
| 2026-05-09 00:17 | 39.90328 | -82.71086 | 3987 ft | 184 kts | 50° |
| 2026-05-09 00:17 | 39.91372 | -82.70315 | 3992 ft | 168 kts | 5° |
| 2026-05-09 00:17 | 39.92515 | -82.70059 | 3981 ft | 166 kts | 2° |
| 2026-05-09 00:17 | 39.93648 | -82.69808 | 3984 ft | 164 kts | 2° |
| 2026-05-09 00:18 | 39.94765 | -82.69579 | 3980 ft | 160 kts | 354° |
| 2026-05-09 00:18 | 39.95716 | -82.70047 | 3986 ft | 143 kts | 313° |
| 2026-05-09 00:18 | 39.96485 | -82.70849 | 3995 ft | 139 kts | 313° |
| 2026-05-09 00:18 | 39.97229 | -82.71609 | 3998 ft | 133 kts | 313° |
| 2026-05-09 00:19 | 39.97953 | -82.72344 | 3993 ft | 131 kts | 312° |
| 2026-05-09 00:19 | 39.98331 | -82.73283 | 3987 ft | 114 kts | 266° |
| 2026-05-09 00:19 | 39.98401 | -82.74295 | 3980 ft | 111 kts | 270° |
| 2026-05-09 00:19 | 39.98470 | -82.75260 | 3980 ft | 101 kts | 269° |
| 2026-05-09 00:20 | 39.98543 | -82.76167 | 3836 ft | 101 kts | 269° |
| 2026-05-09 00:20 | 39.98606 | -82.77089 | 3608 ft | 103 kts | 268° |
| 2026-05-09 00:20 | 39.98654 | -82.78025 | 3386 ft | 104 kts | 269° |
| 2026-05-09 00:20 | 39.98732 | -82.78991 | 3145 ft | 109 kts | 271° |
| 2026-05-09 00:21 | 39.98762 | -82.79977 | 2930 ft | 111 kts | 268° |
| 2026-05-09 00:21 | 39.98767 | -82.81005 | 2619 ft | 112 kts | 266° |
| 2026-05-09 00:21 | 39.98761 | -82.82025 | 2233 ft | 115 kts | 275° |
| 2026-05-09 00:21 | 39.98875 | -82.83079 | 1770 ft | 121 kts | 276° |
| 2026-05-09 00:22 | 39.98990 | -82.84157 | 1381 ft | 122 kts | 275° |
| 2026-05-09 00:22 | 39.99051 | -82.85227 | 1206 ft | 114 kts | 269° |
| 2026-05-09 00:22 | 39.99102 | -82.86205 | 1019 ft | 101 kts | 274° |
| 2026-05-09 00:22 | 39.99148 | -82.87143 | 913 ft | 109 kts | 274° |
| 2026-05-09 00:23 | 39.99202 | -82.88060 | 820 ft | 87 kts | 274° |
| 2026-05-09 00:23 | 39.99231 | -82.88589 | 818 ft | 25 kts | 275° |
| 2026-05-09 00:23 | 39.99241 | -82.88780 | 817 ft | 21 kts | 273° |
| 2026-05-09 00:23 | 39.99246 | -82.88954 | 815 ft | 19 kts | 276° |
| 2026-05-09 00:24 | 39.99231 | -82.89112 | 816 ft | 13 kts | 214° |
| 2026-05-09 00:24 | 39.99179 | -82.89124 | 814 ft | 0 kts | 175° |
| 2026-05-09 00:24 | 39.99145 | -82.89140 | 813 ft | 5 kts | 255° |
| 2026-05-09 00:24 | 39.99141 | -82.89161 | 813 ft | 1 kts | 255° |
| 2026-05-09 00:25 | 39.99134 | -82.89195 | 813 ft | 2 kts | 249° |
| 2026-05-09 00:25 | 39.99133 | -82.89196 | 813 ft | 0 kts | 249° |
| 2026-05-09 00:25 | 39.99124 | -82.89206 | 813 ft | 5 kts | 198° |
| 2026-05-09 00:25 | 39.99092 | -82.89212 | 812 ft | 3 kts | 188° |
| 2026-05-09 00:26 | 39.99070 | -82.89226 | 812 ft | 7 kts | 211° |
| 2026-05-09 00:26 | 39.99063 | -82.89244 | 812 ft | 3 kts | 330° |
| 2026-05-09 00:26 | 39.99063 | -82.89245 | 812 ft | 0 kts | 332° |
| 2026-05-09 00:27 | 39.99079 | -82.89286 | 813 ft | 5 kts | 271° |
| 2026-05-09 00:27 | 39.99064 | -82.89289 | 813 ft | 4 kts | 356° |
| 2026-05-09 00:27 | 39.99066 | -82.89290 | 813 ft | 0 kts | 340° |